createdAt,value
2019-01-08T00:01:50.322Z,18.43
2019-01-08T00:04:52.325Z,17.77
2019-01-08T00:07:54.316Z,18.67
2019-01-08T00:10:56.298Z,17.93
2019-01-08T00:13:58.289Z,19.03
2019-01-08T00:17:00.358Z,16.93
2019-01-08T00:20:02.343Z,18.47
2019-01-08T00:23:04.269Z,18.37
2019-01-08T00:26:06.265Z,18.10
2019-01-08T00:29:08.179Z,16.30
2019-01-08T00:32:10.121Z,18.77
2019-01-08T00:35:12.048Z,15.77
2019-01-08T00:38:14.098Z,17.30
2019-01-08T00:41:16.112Z,17.30
2019-01-08T00:44:18.083Z,15.30
2019-01-08T00:47:20.044Z,16.07
2019-01-08T00:50:22.112Z,14.27
2019-01-08T00:53:26.699Z,16.10
2019-01-08T00:56:28.660Z,15.37
2019-01-08T00:59:30.598Z,16.90
2019-01-08T01:02:32.584Z,15.40
2019-01-08T01:05:34.507Z,15.90
2019-01-08T01:08:36.494Z,15.47
2019-01-08T01:11:38.462Z,15.67
2019-01-08T01:14:40.780Z,15.23
2019-01-08T01:17:42.801Z,13.73
2019-01-08T01:20:44.792Z,12.77
2019-01-08T01:23:46.722Z,14.40
2019-01-08T01:26:48.707Z,13.03
2019-01-08T01:29:50.663Z,13.40
2019-01-08T01:32:52.636Z,12.73
2019-01-08T01:35:54.566Z,13.37
2019-01-08T01:38:56.559Z,14.77
2019-01-08T01:41:58.578Z,13.33
2019-01-08T01:45:00.550Z,12.93
2019-01-08T01:48:02.509Z,13.00
2019-01-08T01:51:04.489Z,12.53
2019-01-08T01:54:06.530Z,13.17
2019-01-08T01:57:08.537Z,11.47
2019-01-08T02:00:10.650Z,12.00
2019-01-08T02:03:12.613Z,14.23
2019-01-08T02:06:14.532Z,12.83
2019-01-08T02:09:16.484Z,12.43
2019-01-08T02:12:18.435Z,11.97
2019-01-08T02:15:20.485Z,11.57
2019-01-08T02:18:22.467Z,11.20
2019-01-08T02:21:24.473Z,11.87
2019-01-08T02:24:26.382Z,10.67
2019-01-08T02:27:28.351Z,10.87
2019-01-08T02:30:30.308Z,12.63
2019-01-08T02:33:32.379Z,11.17
2019-01-08T02:36:34.427Z,9.87
2019-01-08T02:39:36.807Z,9.97
2019-01-08T02:42:38.787Z,8.10
2019-01-08T02:45:40.714Z,8.83
2019-01-08T02:48:42.588Z,9.17
2019-01-08T02:51:44.562Z,9.23
2019-01-08T02:54:46.682Z,9.33
2019-01-08T02:57:48.632Z,7.73
2019-01-08T03:00:50.546Z,7.57
2019-01-08T03:03:55.503Z,8.00
2019-01-08T03:06:57.526Z,8.47
2019-01-08T03:09:59.504Z,7.23
2019-01-08T03:13:01.458Z,9.33
2019-01-08T03:16:03.420Z,8.37
2019-01-08T03:19:05.418Z,8.13
2019-01-08T03:22:07.382Z,7.33
2019-01-08T03:25:09.308Z,7.57
2019-01-08T03:28:11.261Z,7.30
2019-01-08T03:31:13.182Z,7.23
2019-01-08T03:34:15.186Z,7.27
2019-01-08T03:37:17.189Z,6.53
2019-01-08T03:40:19.233Z,6.93
2019-01-08T03:43:21.217Z,6.83
2019-01-08T03:46:23.278Z,6.67
2019-01-08T03:49:25.255Z,7.13
2019-01-08T03:52:27.230Z,5.67
2019-01-08T03:55:30.631Z,6.17
2019-01-08T03:58:32.590Z,5.43
2019-01-08T04:01:34.518Z,4.27
2019-01-08T04:04:36.515Z,3.70
2019-01-08T04:07:38.486Z,3.90
2019-01-08T04:10:40.479Z,4.17
2019-01-08T04:13:42.486Z,3.40
2019-01-08T04:16:44.629Z,3.80
2019-01-08T04:19:46.664Z,4.20
2019-01-08T04:22:48.612Z,3.27
2019-01-08T04:25:50.849Z,2.80
2019-01-08T04:28:52.842Z,3.30
2019-01-08T04:31:54.785Z,3.47
2019-01-08T04:34:56.756Z,2.37
2019-01-08T04:37:58.695Z,2.50
2019-01-08T04:41:00.672Z,2.37
2019-01-08T04:44:02.624Z,2.70
2019-01-08T04:47:04.630Z,2.40
2019-01-08T04:50:06.529Z,2.33
2019-01-08T04:53:08.467Z,2.37
2019-01-08T04:56:10.553Z,1.90
2019-01-08T04:59:12.543Z,2.30
2019-01-08T05:02:14.503Z,2.10
2019-01-08T05:05:16.488Z,2.80
2019-01-08T05:08:18.489Z,2.97
2019-01-08T05:11:20.554Z,2.73
2019-01-08T05:14:22.532Z,2.50
2019-01-08T05:17:24.585Z,2.57
2019-01-08T05:20:26.649Z,2.73
2019-01-08T05:23:28.643Z,2.30
2019-01-08T05:26:30.580Z,2.77
2019-01-08T05:29:32.560Z,3.00
2019-01-08T05:32:37.313Z,2.43
2019-01-08T05:35:39.397Z,2.90
2019-01-08T05:38:42.473Z,2.93
2019-01-08T05:41:45.785Z,2.30
2019-01-08T05:44:48.289Z,3.10
2019-01-08T05:47:50.310Z,2.37
2019-01-08T05:50:52.251Z,2.23
2019-01-08T05:53:54.290Z,2.53
2019-01-08T05:56:56.365Z,2.60
2019-01-08T05:59:58.388Z,3.13
2019-01-08T06:03:00.363Z,2.60
2019-01-08T06:06:02.306Z,3.00
2019-01-08T06:09:05.040Z,2.90
2019-01-08T06:12:07.100Z,2.03
2019-01-08T06:15:09.084Z,3.57
2019-01-08T06:18:11.017Z,4.10
2019-01-08T06:21:13.028Z,2.90
2019-01-08T06:24:14.984Z,2.40
2019-01-08T06:27:16.928Z,2.57
2019-01-08T06:30:24.776Z,2.90
2019-01-08T06:33:22.777Z,2.83
2019-01-08T06:36:26.255Z,2.93
2019-01-08T06:39:28.629Z,3.50
2019-01-08T06:42:30.638Z,3.33
2019-01-08T06:45:32.655Z,3.37
2019-01-08T06:48:34.669Z,3.07
2019-01-08T06:51:36.558Z,2.30
2019-01-08T06:54:38.592Z,2.03
2019-01-08T06:57:40.596Z,2.13
2019-01-08T07:00:42.586Z,1.60
2019-01-08T07:03:44.554Z,1.80
2019-01-08T07:06:46.514Z,2.17
2019-01-08T07:09:48.443Z,2.63
2019-01-08T07:12:50.438Z,2.47
2019-01-08T07:15:52.474Z,2.17
2019-01-08T07:18:54.468Z,2.50
2019-01-08T07:21:56.488Z,2.07
2019-01-08T07:24:58.498Z,2.60
2019-01-08T07:28:00.468Z,2.87
2019-01-08T07:31:02.658Z,2.70
2019-01-08T07:34:04.639Z,3.37
2019-01-08T07:37:06.567Z,2.00
2019-01-08T07:40:08.532Z,1.90
2019-01-08T07:43:10.603Z,1.80
2019-01-08T07:46:12.544Z,1.90
2019-01-08T07:49:14.600Z,2.20
2019-01-08T07:52:16.494Z,2.03
2019-01-08T07:55:18.471Z,1.80
2019-01-08T07:58:20.590Z,2.00
2019-01-08T08:01:22.910Z,2.60
2019-01-08T08:04:24.835Z,2.47
2019-01-08T08:07:26.835Z,3.13
2019-01-08T08:10:28.843Z,2.77
2019-01-08T08:13:32.500Z,2.23
2019-01-08T08:16:34.891Z,1.90
2019-01-08T08:19:36.830Z,2.47
2019-01-08T08:22:38.813Z,2.50
2019-01-08T08:25:40.806Z,2.93
2019-01-08T08:28:42.720Z,3.50
2019-01-08T08:31:44.716Z,2.77
2019-01-08T08:34:46.632Z,4.07
2019-01-08T08:37:48.662Z,3.43
2019-01-08T08:40:50.595Z,3.20
2019-01-08T08:43:52.559Z,2.70
2019-01-08T08:46:54.529Z,2.10
2019-01-08T08:49:56.598Z,2.33
2019-01-08T08:52:58.567Z,1.97
2019-01-08T08:56:01.057Z,7.23
2019-01-08T08:59:03.072Z,7.13
2019-01-08T09:02:05.144Z,4.73
2019-01-08T09:05:07.093Z,1.80
2019-01-08T09:08:09.026Z,3.20
2019-01-08T09:11:10.936Z,8.53
2019-01-08T09:14:12.904Z,11.23
2019-01-08T09:17:14.982Z,3.63
2019-01-08T09:20:17.204Z,4.40
2019-01-08T09:23:19.233Z,5.23
2019-01-08T09:26:21.256Z,4.83
2019-01-08T09:29:23.224Z,4.80
2019-01-08T09:32:25.738Z,4.27
2019-01-08T09:35:27.698Z,3.77
2019-01-08T09:38:29.657Z,3.40
2019-01-08T09:41:31.551Z,4.00
2019-01-08T09:44:33.557Z,4.27
2019-01-08T09:47:35.567Z,4.37
2019-01-08T09:50:37.591Z,3.67
2019-01-08T09:53:39.499Z,4.13
2019-01-08T09:56:41.465Z,3.77
2019-01-08T09:59:43.749Z,3.20
2019-01-08T10:02:45.790Z,2.70
2019-01-08T10:05:47.658Z,3.33
2019-01-08T10:08:49.586Z,2.67
2019-01-08T10:11:51.525Z,3.07
2019-01-08T10:14:53.497Z,3.30
2019-01-08T10:17:55.493Z,3.33
2019-01-08T10:20:57.594Z,3.03
2019-01-08T10:23:59.696Z,2.87
2019-01-08T10:27:01.637Z,2.67
2019-01-08T10:30:07.266Z,2.53
2019-01-08T10:33:09.238Z,3.57
2019-01-08T10:36:11.155Z,3.67
2019-01-08T10:39:13.163Z,2.93
2019-01-08T10:42:15.011Z,3.93
2019-01-08T10:45:16.953Z,4.37
2019-01-08T10:48:18.879Z,3.60
2019-01-08T10:51:20.876Z,2.97
2019-01-08T10:54:22.816Z,3.27
2019-01-08T10:57:24.805Z,2.40
2019-01-08T11:00:26.883Z,2.67
2019-01-08T11:03:28.935Z,2.77
2019-01-08T11:06:30.908Z,2.60
2019-01-08T11:09:32.820Z,2.27
2019-01-08T11:12:34.755Z,1.93
2019-01-08T11:15:36.716Z,2.43
2019-01-08T11:18:38.707Z,2.77
2019-01-08T11:21:40.700Z,2.67
2019-01-08T11:24:42.770Z,3.67
2019-01-08T11:27:44.749Z,3.30
2019-01-08T11:30:46.676Z,2.03
2019-01-08T11:33:48.652Z,2.77
2019-01-08T11:36:50.577Z,3.03
2019-01-08T11:39:52.502Z,2.73
2019-01-08T11:42:54.425Z,2.83
2019-01-08T11:45:56.392Z,3.73
2019-01-08T11:48:58.345Z,3.93
2019-01-08T11:52:00.311Z,3.33
2019-01-08T11:55:02.326Z,3.33
2019-01-08T11:58:04.340Z,4.20
2019-01-08T12:01:06.275Z,3.57
2019-01-08T12:04:08.242Z,2.90
2019-01-08T12:07:10.157Z,3.47
2019-01-08T12:10:12.358Z,3.00
2019-01-08T12:13:14.276Z,2.97
2019-01-08T12:16:16.263Z,2.93
2019-01-08T12:19:18.266Z,3.40
2019-01-08T12:22:20.190Z,3.17
2019-01-08T12:25:22.178Z,3.00
2019-01-08T12:28:24.200Z,3.00
2019-01-08T12:31:26.106Z,3.07
2019-01-08T12:34:28.055Z,2.63
2019-01-08T12:37:29.955Z,2.90
2019-01-08T12:40:31.891Z,3.40
2019-01-08T12:43:33.771Z,3.23
2019-01-08T12:46:35.697Z,3.23
2019-01-08T12:49:37.656Z,3.97
2019-01-08T12:52:39.569Z,3.70
2019-01-08T12:55:41.487Z,3.33
2019-01-08T12:58:43.409Z,3.70
2019-01-08T13:01:45.335Z,4.33
2019-01-08T13:04:47.417Z,4.50
2019-01-08T13:07:49.288Z,4.93
2019-01-08T13:10:51.253Z,4.17
2019-01-08T13:13:53.153Z,4.03
2019-01-08T13:16:55.136Z,3.87
2019-01-08T13:19:57.083Z,3.53
2019-01-08T13:22:59.028Z,4.10
2019-01-08T13:26:01.050Z,4.50
2019-01-08T13:29:02.995Z,4.10
2019-01-08T13:32:04.985Z,5.10
2019-01-08T13:35:07.055Z,4.40
2019-01-08T13:38:08.999Z,4.47
2019-01-08T13:41:10.985Z,3.63
2019-01-08T13:44:12.866Z,4.70
2019-01-08T13:47:14.971Z,4.47
2019-01-08T13:50:18.038Z,4.03
2019-01-08T13:53:20.030Z,5.43
2019-01-08T13:56:21.922Z,5.10
2019-01-08T13:59:24.237Z,5.93
2019-01-08T14:02:31.826Z,4.50
2019-01-08T14:05:30.377Z,4.07
2019-01-08T14:08:32.472Z,3.77
2019-01-08T14:11:34.436Z,3.87
2019-01-08T14:14:36.363Z,3.27
2019-01-08T14:17:38.315Z,3.07
2019-01-08T14:20:40.282Z,3.43
2019-01-08T14:23:42.235Z,3.77
2019-01-08T14:26:44.441Z,3.83
2019-01-08T14:29:46.511Z,3.97
2019-01-08T14:32:48.432Z,3.87
2019-01-08T14:35:50.380Z,3.70
2019-01-08T14:38:52.291Z,3.17
2019-01-08T14:41:54.292Z,3.93
2019-01-08T14:44:56.248Z,4.17
2019-01-08T14:47:58.263Z,3.23
2019-01-08T14:51:00.292Z,4.43
2019-01-08T14:54:02.232Z,3.67
2019-01-08T14:57:04.110Z,3.93
2019-01-08T15:00:08.474Z,5.23
2019-01-08T15:03:10.411Z,3.97
2019-01-08T15:06:12.922Z,3.87
2019-01-08T15:09:14.873Z,3.17
2019-01-08T15:12:16.826Z,4.20
2019-01-08T15:15:18.760Z,4.13
2019-01-08T15:18:20.751Z,3.90
2019-01-08T15:21:22.685Z,3.70
2019-01-08T15:24:24.838Z,3.93
2019-01-08T15:27:26.886Z,3.30
2019-01-08T15:30:28.866Z,3.30
2019-01-08T15:33:30.766Z,3.10
2019-01-08T15:36:32.806Z,3.77
2019-01-08T15:39:34.711Z,3.80
2019-01-08T15:42:36.686Z,4.00
2019-01-08T15:45:38.602Z,4.23
2019-01-08T15:48:40.586Z,4.57
2019-01-08T15:51:42.551Z,4.73
2019-01-08T15:54:44.516Z,4.30
2019-01-08T15:57:46.389Z,4.07
2019-01-08T16:00:48.330Z,4.43
2019-01-08T16:03:50.302Z,4.03
2019-01-08T16:06:53.916Z,3.17
2019-01-08T16:09:55.832Z,3.27
2019-01-08T16:12:57.996Z,3.70
2019-01-08T16:15:59.932Z,3.60
2019-01-08T16:19:01.965Z,3.40
2019-01-08T16:22:03.909Z,3.07
2019-01-08T16:25:05.850Z,3.70
2019-01-08T16:28:07.888Z,4.23
2019-01-08T16:31:09.890Z,4.13
2019-01-08T16:34:11.838Z,3.40
2019-01-08T16:37:13.833Z,4.10
2019-01-08T16:40:16.906Z,3.60
2019-01-08T16:43:18.907Z,3.33
2019-01-08T16:46:20.823Z,3.27
2019-01-08T16:49:22.869Z,3.90
2019-01-08T16:52:24.906Z,3.20
2019-01-08T16:55:26.920Z,2.90
2019-01-08T16:58:28.875Z,3.20
2019-01-08T17:01:30.923Z,2.93
2019-01-08T17:04:32.822Z,2.97
2019-01-08T17:07:35.134Z,3.57
2019-01-08T17:10:37.758Z,4.23
2019-01-08T17:13:39.867Z,4.03
2019-01-08T17:16:41.901Z,5.13
2019-01-08T17:19:43.875Z,3.57
2019-01-08T17:22:45.904Z,4.20
2019-01-08T17:25:48.344Z,3.27
2019-01-08T17:28:50.467Z,4.10
2019-01-08T17:31:52.550Z,3.47
2019-01-08T17:34:54.463Z,4.60
2019-01-08T17:37:56.427Z,3.20
2019-01-08T17:40:58.403Z,3.90
2019-01-08T17:44:00.477Z,4.20
2019-01-08T17:47:02.557Z,4.53
2019-01-08T17:50:05.241Z,5.37
2019-01-08T17:53:10.024Z,5.93
2019-01-08T17:56:12.128Z,5.00
2019-01-08T17:59:14.029Z,5.10
2019-01-08T18:02:15.994Z,4.90
2019-01-08T18:05:18.066Z,4.40
2019-01-08T18:08:20.557Z,4.73
2019-01-08T18:11:23.970Z,4.60
2019-01-08T18:14:25.902Z,5.47
2019-01-08T18:17:27.817Z,4.43
2019-01-08T18:20:29.790Z,5.27
2019-01-08T18:23:31.828Z,5.90
2019-01-08T18:26:34.388Z,6.80
2019-01-08T18:29:36.631Z,7.20
2019-01-08T18:32:38.731Z,6.87
2019-01-08T18:35:42.448Z,7.30
2019-01-08T18:38:44.370Z,8.33
2019-01-08T18:41:48.298Z,8.60
2019-01-08T18:44:54.225Z,10.97
2019-01-08T18:47:56.344Z,10.83
2019-01-08T18:50:59.782Z,10.00
2019-01-08T18:54:02.288Z,10.20
2019-01-08T18:57:04.265Z,12.10
2019-01-08T19:00:08.201Z,13.73
2019-01-08T19:03:10.197Z,14.80
2019-01-08T19:06:15.020Z,14.50
2019-01-08T19:09:29.617Z,11.30
2019-01-08T19:12:31.577Z,8.13
2019-01-08T19:15:35.880Z,6.67
2019-01-08T19:18:37.814Z,8.60
2019-01-08T19:21:39.833Z,7.80
2019-01-08T19:24:43.624Z,9.43
2019-01-08T19:27:47.407Z,15.10
2019-01-08T19:30:51.674Z,10.53
2019-01-08T19:33:54.124Z,12.07
2019-01-08T19:36:57.259Z,14.00
2019-01-08T19:40:01.293Z,13.07
2019-01-08T19:43:06.623Z,11.93
2019-01-08T19:46:09.977Z,13.10
2019-01-08T19:49:13.891Z,12.50
2019-01-08T19:52:16.563Z,9.77
2019-01-08T19:55:18.594Z,9.07
2019-01-08T19:58:20.700Z,10.57
2019-01-08T20:01:22.639Z,10.53
2019-01-08T20:04:24.622Z,13.40
2019-01-08T20:07:27.644Z,11.93
2019-01-08T20:10:29.793Z,15.13
2019-01-08T20:13:31.805Z,12.23
2019-01-08T20:16:33.789Z,16.70
2019-01-08T20:19:35.736Z,13.23
2019-01-08T20:22:38.183Z,11.33
2019-01-08T20:25:40.207Z,11.00
2019-01-08T20:28:42.196Z,9.67
2019-01-08T20:31:44.681Z,10.17
2019-01-08T20:34:48.667Z,11.53
2019-01-08T20:37:51.447Z,10.80
2019-01-08T20:40:53.441Z,14.37
2019-01-08T20:43:55.791Z,9.00
2019-01-08T20:46:58.460Z,6.80
2019-01-08T20:50:00.427Z,6.53
2019-01-08T20:53:02.759Z,6.83
2019-01-08T20:56:04.817Z,7.83
2019-01-08T20:59:07.112Z,7.93
2019-01-08T21:02:09.102Z,6.50
2019-01-08T21:05:11.117Z,7.80
2019-01-08T21:08:13.102Z,8.80
2019-01-08T21:11:17.057Z,6.53
2019-01-08T21:14:19.002Z,5.90
2019-01-08T21:17:24.514Z,6.03
2019-01-08T21:20:26.518Z,6.90
2019-01-08T21:23:28.462Z,7.63
2019-01-08T21:26:30.458Z,9.97
2019-01-08T21:29:32.463Z,6.83
2019-01-08T21:32:34.462Z,6.27
2019-01-08T21:35:37.800Z,7.53
2019-01-08T21:38:42.218Z,6.07
2019-01-08T21:41:44.298Z,6.23
2019-01-08T21:44:46.309Z,5.47
2019-01-08T21:47:48.491Z,5.87
2019-01-08T21:50:50.427Z,6.10
2019-01-08T21:53:52.434Z,6.77
2019-01-08T21:56:54.383Z,7.23
2019-01-08T21:59:56.316Z,6.33
2019-01-08T22:02:59.314Z,8.47
2019-01-08T22:06:01.322Z,8.90
2019-01-08T22:09:04.873Z,8.93
2019-01-08T22:12:06.942Z,7.37
2019-01-08T22:15:08.852Z,8.60
2019-01-08T22:18:10.838Z,9.27
2019-01-08T22:21:12.738Z,8.63
2019-01-08T22:24:14.774Z,7.30
2019-01-08T22:27:16.753Z,5.50
2019-01-08T22:30:18.729Z,3.97
2019-01-08T22:33:20.790Z,2.60
2019-01-08T22:36:22.809Z,2.50
2019-01-08T22:39:24.763Z,2.53
2019-01-08T22:42:26.722Z,2.87
2019-01-08T22:45:28.678Z,2.23
2019-01-08T22:48:30.875Z,2.13
2019-01-08T22:51:32.797Z,2.07
2019-01-08T22:54:34.752Z,2.50
2019-01-08T22:57:36.864Z,2.63
2019-01-08T23:00:49.487Z,3.00
2019-01-08T23:04:01.014Z,2.73
2019-01-08T23:07:03.178Z,2.43
2019-01-08T23:10:05.645Z,2.10
2019-01-08T23:13:09.269Z,2.50
2019-01-08T23:16:11.267Z,2.57
2019-01-08T23:19:14.552Z,3.10
2019-01-08T23:22:16.557Z,3.60
2019-01-08T23:25:18.546Z,3.87
2019-01-08T23:28:20.536Z,3.63
2019-01-08T23:31:22.495Z,3.53
2019-01-08T23:34:24.491Z,3.13
2019-01-08T23:37:26.504Z,3.97
2019-01-08T23:40:28.433Z,4.03
2019-01-08T23:43:30.437Z,4.17
2019-01-08T23:46:32.324Z,3.20
2019-01-08T23:49:35.660Z,3.67
2019-01-08T23:52:56.561Z,3.70
2019-01-08T23:55:59.954Z,3.83
2019-01-08T23:59:02.019Z,3.40
